Terminal Aerodrome Forecast
Issued by NWS

Home | Current Version | Previous Version | Graphics & Text | Print | Product List | Glossary On
Versions: 1 2 3 4 5 6 7 8 9 10 11 12 13 14 15 16 17 18 19 20 21 22 23 24
000
FTUS43 KBIS 201730
TAFDIK
TAF
KDIK 201730Z 2018/2118 27016KT P6SM FEW150
     FM202300 24013KT P6SM FEW200
     FM210200 20007KT P6SM SCT200
     FM210500 19007KT P6SM BKN100
     FM210800 22008KT P6SM SCT140
     FM211100 25010KT P6SM SCT200=

USA.gov is the U.S. government's official web portal to all federal, state and local government web resources and services.